Somers Lane, Pennsylvania
Current Conditions -  °F | °C
As of 4:53 PM on Wednesday 28 Jan 2015 (Local Time) from KELM Reporting Station
Clear Clear  
Wind Chill: 16°   Ceiling: Unl
Heat Index: 25°   Visibility: 10mi
Dew Point:   Wind: 9mph
Humidity: 49%   Direction: 20°NNE
Pressure: 30.24"   Gusts: NA
Location:  41.971°N, 77.1237°W
Report Text: KELM 282153Z AUTO 02008KT 10SM CLR M04/M13 A3024 RMK AO2 SLP259 T10391133
Loading
Personal Weather Stations






























Interactive Weather Map New forecast layout! Learn more

10-Day Weather Forecast

Advertisements
Track Severe Weather on mobile